sensor_id;sensor_type;location;lat;lon;timestamp;pressure;altitude;pressure_sealevel;temperature;humidity
11413;BME280;5762;43.256;26.960;2023-04-29T00:00:30;100196.58;;;5.74;100.00
11413;BME280;5762;43.256;26.960;2023-04-29T00:02:59;100199.95;;;5.62;100.00
11413;BME280;5762;43.256;26.960;2023-04-29T00:05:28;100199.30;;;5.47;100.00
11413;BME280;5762;43.256;26.960;2023-04-29T00:07:56;100197.31;;;5.13;100.00
11413;BME280;5762;43.256;26.960;2023-04-29T00:10:26;100200.66;;;5.01;100.00
11413;BME280;5762;43.256;26.960;2023-04-29T00:12:55;100203.15;;;5.08;100.00
11413;BME280;5762;43.256;26.960;2023-04-29T00:15:23;100201.28;;;5.08;100.00
11413;BME280;5762;43.256;26.960;2023-04-29T00:17:52;100210.45;;;5.12;100.00
11413;BME280;5762;43.256;26.960;2023-04-29T00:20:21;100228.23;;;5.18;100.00
11413;BME280;5762;43.256;26.960;2023-04-29T00:22:50;100248.52;;;5.33;100.00
11413;BME280;5762;43.256;26.960;2023-04-29T00:25:19;100249.17;;;5.43;100.00
11413;BME280;5762;43.256;26.960;2023-04-29T00:27:48;100249.33;;;5.34;100.00
11413;BME280;5762;43.256;26.960;2023-04-29T00:30:17;100253.52;;;5.47;100.00
11413;BME280;5762;43.256;26.960;2023-04-29T00:32:45;100250.42;;;5.35;100.00
11413;BME280;5762;43.256;26.960;2023-04-29T00:35:14;100244.24;;;5.35;100.00
11413;BME280;5762;43.256;26.960;2023-04-29T00:37:42;100238.62;;;5.36;100.00
11413;BME280;5762;43.256;26.960;2023-04-29T00:40:11;100235.44;;;5.39;100.00
11413;BME280;5762;43.256;26.960;2023-04-29T00:42:41;100234.53;;;5.53;100.00
11413;BME280;5762;43.256;26.960;2023-04-29T00:45:10;100217.52;;;5.72;100.00
11413;BME280;5762;43.256;26.960;2023-04-29T00:47:39;100200.23;;;5.90;100.00
11413;BME280;5762;43.256;26.960;2023-04-29T00:50:08;100175.05;;;5.98;100.00
11413;BME280;5762;43.256;26.960;2023-04-29T00:52:37;100147.98;;;6.08;100.00
11413;BME280;5762;43.256;26.960;2023-04-29T00:55:06;100127.58;;;6.09;100.00
11413;BME280;5762;43.256;26.960;2023-04-29T00:57:34;100111.16;;;6.05;100.00
11413;BME280;5762;43.256;26.960;2023-04-29T01:00:04;100106.38;;;6.13;100.00
11413;BME280;5762;43.256;26.960;2023-04-29T01:02:33;100104.76;;;6.12;100.00
11413;BME280;5762;43.256;26.960;2023-04-29T01:05:02;100098.31;;;6.13;100.00
11413;BME280;5762;43.256;26.960;2023-04-29T01:07:33;100092.59;;;6.01;100.00
11413;BME280;5762;43.256;26.960;2023-04-29T01:10:06;100093.61;;;5.93;100.00
11413;BME280;5762;43.256;26.960;2023-04-29T01:15:17;100099.16;;;5.81;100.00
11413;BME280;5762;43.256;26.960;2023-04-29T01:20:22;100106.00;;;5.32;100.00
11413;BME280;5762;43.256;26.960;2023-04-29T01:22:52;100132.16;;;4.93;100.00
11413;BME280;5762;43.256;26.960;2023-04-29T01:25:21;100157.02;;;4.86;100.00
11413;BME280;5762;43.256;26.960;2023-04-29T01:27:57;100177.94;;;4.84;100.00
11413;BME280;5762;43.256;26.960;2023-04-29T01:36:04;100222.34;;;5.21;100.00
11413;BME280;5762;43.256;26.960;2023-04-29T01:38:35;100227.42;;;5.18;100.00
11413;BME280;5762;43.256;26.960;2023-04-29T01:41:09;100220.87;;;5.09;100.00
11413;BME280;5762;43.256;26.960;2023-04-29T01:43:38;100219.15;;;5.00;100.00
11413;BME280;5762;43.256;26.960;2023-04-29T01:46:08;100223.17;;;5.00;100.00
11413;BME280;5762;43.256;26.960;2023-04-29T01:48:37;100223.56;;;4.67;100.00
11413;BME280;5762;43.256;26.960;2023-04-29T01:51:07;100232.75;;;4.55;100.00
11413;BME280;5762;43.256;26.960;2023-04-29T01:53:35;100251.14;;;4.46;100.00
11413;BME280;5762;43.256;26.960;2023-04-29T01:56:05;100267.84;;;4.53;100.00
11413;BME280;5762;43.256;26.960;2023-04-29T01:58:35;100288.42;;;4.48;100.00
11413;BME280;5762;43.256;26.960;2023-04-29T02:01:07;100299.14;;;4.48;100.00
11413;BME280;5762;43.256;26.960;2023-04-29T02:03:35;100308.75;;;4.29;100.00
11413;BME280;5762;43.256;26.960;2023-04-29T02:06:03;100317.42;;;4.20;100.00
11413;BME280;5762;43.256;26.960;2023-04-29T02:08:33;100315.78;;;4.02;100.00
11413;BME280;5762;43.256;26.960;2023-04-29T02:11:02;100340.07;;;3.84;100.00
11413;BME280;5762;43.256;26.960;2023-04-29T02:13:31;100370.83;;;3.95;100.00
11413;BME280;5762;43.256;26.960;2023-04-29T02:16:06;100399.82;;;4.13;100.00
11413;BME280;5762;43.256;26.960;2023-04-29T02:18:35;100407.37;;;4.01;100.00
11413;BME280;5762;43.256;26.960;2023-04-29T02:21:03;100420.00;;;4.03;100.00
11413;BME280;5762;43.256;26.960;2023-04-29T02:23:32;100425.91;;;3.91;100.00
11413;BME280;5762;43.256;26.960;2023-04-29T02:26:01;100436.38;;;3.79;100.00
11413;BME280;5762;43.256;26.960;2023-04-29T02:28:31;100452.04;;;3.73;100.00
11413;BME280;5762;43.256;26.960;2023-04-29T02:31:00;100464.50;;;3.67;100.00
11413;BME280;5762;43.256;26.960;2023-04-29T02:33:29;100474.09;;;3.54;100.00
11413;BME280;5762;43.256;26.960;2023-04-29T02:35:57;100488.17;;;3.49;100.00
11413;BME280;5762;43.256;26.960;2023-04-29T02:38:25;100494.48;;;3.43;100.00
11413;BME280;5762;43.256;26.960;2023-04-29T02:40:54;100507.41;;;3.46;100.00
11413;BME280;5762;43.256;26.960;2023-04-29T02:43:23;100515.66;;;3.45;100.00
11413;BME280;5762;43.256;26.960;2023-04-29T02:45:52;100531.13;;;3.43;100.00
11413;BME280;5762;43.256;26.960;2023-04-29T02:48:21;100541.08;;;3.45;100.00
11413;BME280;5762;43.256;26.960;2023-04-29T02:50:49;100552.89;;;3.46;100.00
11413;BME280;5762;43.256;26.960;2023-04-29T02:53:18;100563.69;;;3.51;100.00
11413;BME280;5762;43.256;26.960;2023-04-29T02:55:47;100578.84;;;3.46;100.00
11413;BME280;5762;43.256;26.960;2023-04-29T02:58:15;100573.69;;;3.32;100.00
11413;BME280;5762;43.256;26.960;2023-04-29T03:00:44;100576.30;;;3.30;100.00
11413;BME280;5762;43.256;26.960;2023-04-29T03:03:13;100580.41;;;3.23;100.00
11413;BME280;5762;43.256;26.960;2023-04-29T03:05:41;100584.22;;;3.16;100.00
11413;BME280;5762;43.256;26.960;2023-04-29T03:08:10;100584.12;;;3.11;100.00
11413;BME280;5762;43.256;26.960;2023-04-29T03:10:39;100593.56;;;3.04;100.00
11413;BME280;5762;43.256;26.960;2023-04-29T03:13:08;100603.98;;;2.94;100.00
11413;BME280;5762;43.256;26.960;2023-04-29T03:15:37;100615.86;;;2.98;100.00
11413;BME280;5762;43.256;26.960;2023-04-29T03:18:06;100621.30;;;3.12;100.00
11413;BME280;5762;43.256;26.960;2023-04-29T03:20:35;100629.76;;;3.18;100.00
11413;BME280;5762;43.256;26.960;2023-04-29T03:23:03;100631.23;;;3.23;100.00
11413;BME280;5762;43.256;26.960;2023-04-29T03:25:31;100642.59;;;3.28;100.00
11413;BME280;5762;43.256;26.960;2023-04-29T03:28:00;100644.78;;;3.40;100.00
11413;BME280;5762;43.256;26.960;2023-04-29T03:30:29;100649.84;;;3.39;100.00
11413;BME280;5762;43.256;26.960;2023-04-29T03:32:58;100649.84;;;3.51;100.00
11413;BME280;5762;43.256;26.960;2023-04-29T03:35:26;100654.29;;;3.57;100.00
11413;BME280;5762;43.256;26.960;2023-04-29T03:40:31;100651.68;;;3.59;100.00
11413;BME280;5762;43.256;26.960;2023-04-29T03:42:59;100657.45;;;3.65;100.00
11413;BME280;5762;43.256;26.960;2023-04-29T03:45:28;100656.08;;;3.75;100.00
11413;BME280;5762;43.256;26.960;2023-04-29T03:47:57;100653.41;;;3.75;100.00
11413;BME280;5762;43.256;26.960;2023-04-29T03:50:25;100649.63;;;3.73;100.00
11413;BME280;5762;43.256;26.960;2023-04-29T03:52:53;100628.86;;;3.57;100.00
11413;BME280;5762;43.256;26.960;2023-04-29T03:55:23;100614.38;;;3.55;100.00
11413;BME280;5762;43.256;26.960;2023-04-29T03:57:51;100604.72;;;3.43;100.00
11413;BME280;5762;43.256;26.960;2023-04-29T04:00:20;100600.57;;;3.38;100.00
11413;BME280;5762;43.256;26.960;2023-04-29T04:02:49;100588.73;;;3.45;100.00
11413;BME280;5762;43.256;26.960;2023-04-29T04:05:18;100596.98;;;3.44;100.00
11413;BME280;5762;43.256;26.960;2023-04-29T04:07:47;100592.41;;;3.32;100.00
11413;BME280;5762;43.256;26.960;2023-04-29T04:10:16;100592.87;;;3.29;100.00
11413;BME280;5762;43.256;26.960;2023-04-29T04:12:45;100601.45;;;3.41;100.00
11413;BME280;5762;43.256;26.960;2023-04-29T04:15:14;100605.00;;;3.55;100.00
11413;BME280;5762;43.256;26.960;2023-04-29T04:17:43;100615.28;;;3.70;100.00
11413;BME280;5762;43.256;26.960;2023-04-29T04:20:12;100623.31;;;3.93;100.00
11413;BME280;5762;43.256;26.960;2023-04-29T04:22:41;100615.40;;;3.98;100.00
11413;BME280;5762;43.256;26.960;2023-04-29T04:25:09;100618.95;;;4.13;100.00
11413;BME280;5762;43.256;26.960;2023-04-29T04:27:38;100605.11;;;4.30;100.00
11413;BME280;5762;43.256;26.960;2023-04-29T04:30:07;100597.59;;;4.42;100.00
11413;BME280;5762;43.256;26.960;2023-04-29T04:32:36;100588.44;;;4.54;100.00
11413;BME280;5762;43.256;26.960;2023-04-29T04:35:06;100589.15;;;4.76;100.00
11413;BME280;5762;43.256;26.960;2023-04-29T04:37:34;100568.97;;;4.87;100.00
11413;BME280;5762;43.256;26.960;2023-04-29T04:40:03;100553.92;;;5.15;100.00
11413;BME280;5762;43.256;26.960;2023-04-29T04:42:33;100537.91;;;5.53;100.00
11413;BME280;5762;43.256;26.960;2023-04-29T04:45:01;100522.08;;;5.73;100.00
11413;BME280;5762;43.256;26.960;2023-04-29T04:47:30;100503.08;;;5.97;100.00
11413;BME280;5762;43.256;26.960;2023-04-29T04:49:58;100475.74;;;6.02;100.00
11413;BME280;5762;43.256;26.960;2023-04-29T04:52:28;100456.12;;;6.26;100.00
11413;BME280;5762;43.256;26.960;2023-04-29T04:54:56;100428.91;;;6.45;100.00
11413;BME280;5762;43.256;26.960;2023-04-29T04:57:25;100399.20;;;6.61;100.00
11413;BME280;5762;43.256;26.960;2023-04-29T04:59:54;100377.17;;;6.64;100.00
11413;BME280;5762;43.256;26.960;2023-04-29T05:02:23;100362.61;;;6.92;100.00
11413;BME280;5762;43.256;26.960;2023-04-29T05:04:52;100333.66;;;7.12;100.00
11413;BME280;5762;43.256;26.960;2023-04-29T05:07:20;100313.05;;;7.40;100.00
11413;BME280;5762;43.256;26.960;2023-04-29T05:09:49;100279.65;;;7.36;100.00
11413;BME280;5762;43.256;26.960;2023-04-29T05:12:18;100254.36;;;7.43;100.00
11413;BME280;5762;43.256;26.960;2023-04-29T05:14:48;100240.63;;;7.44;100.00
11413;BME280;5762;43.256;26.960;2023-04-29T05:17:17;100236.09;;;7.57;100.00
11413;BME280;5762;43.256;26.960;2023-04-29T05:19:45;100225.33;;;7.70;100.00
11413;BME280;5762;43.256;26.960;2023-04-29T05:22:13;100222.12;;;8.11;100.00
11413;BME280;5762;43.256;26.960;2023-04-29T05:24:42;100196.52;;;8.19;100.00
11413;BME280;5762;43.256;26.960;2023-04-29T05:27:10;100188.95;;;8.46;100.00
11413;BME280;5762;43.256;26.960;2023-04-29T05:29:39;100170.77;;;8.80;100.00
11413;BME280;5762;43.256;26.960;2023-04-29T05:32:08;100154.69;;;9.14;100.00
11413;BME280;5762;43.256;26.960;2023-04-29T05:34:36;100135.42;;;9.30;100.00
11413;BME280;5762;43.256;26.960;2023-04-29T05:37:05;100121.72;;;9.58;100.00
11413;BME280;5762;43.256;26.960;2023-04-29T05:39:33;100104.13;;;9.61;100.00
11413;BME280;5762;43.256;26.960;2023-04-29T05:42:02;100083.56;;;9.94;100.00
11413;BME280;5762;43.256;26.960;2023-04-29T05:44:31;100058.59;;;10.04;100.00
11413;BME280;5762;43.256;26.960;2023-04-29T05:47:03;100037.52;;;10.28;100.00
11413;BME280;5762;43.256;26.960;2023-04-29T05:49:31;100025.59;;;10.50;100.00
11413;BME280;5762;43.256;26.960;2023-04-29T05:52:00;100027.27;;;10.46;100.00
11413;BME280;5762;43.256;26.960;2023-04-29T05:54:29;100027.02;;;10.66;100.00
11413;BME280;5762;43.256;26.960;2023-04-29T05:56:58;100031.20;;;10.75;100.00
11413;BME280;5762;43.256;26.960;2023-04-29T05:59:30;100008.31;;;10.86;100.00
11413;BME280;5762;43.256;26.960;2023-04-29T06:01:59;99996.38;;;11.06;100.00
11413;BME280;5762;43.256;26.960;2023-04-29T06:04:28;99969.49;;;11.26;100.00
11413;BME280;5762;43.256;26.960;2023-04-29T06:06:57;99960.99;;;11.46;100.00
11413;BME280;5762;43.256;26.960;2023-04-29T06:09:26;99946.46;;;11.56;100.00
11413;BME280;5762;43.256;26.960;2023-04-29T06:11:55;99933.98;;;11.71;100.00
11413;BME280;5762;43.256;26.960;2023-04-29T06:14:24;99910.65;;;12.00;100.00
11413;BME280;5762;43.256;26.960;2023-04-29T06:16:52;99879.30;;;12.07;100.00
11413;BME280;5762;43.256;26.960;2023-04-29T06:19:21;99848.89;;;12.44;100.00
11413;BME280;5762;43.256;26.960;2023-04-29T06:21:50;99839.98;;;12.74;100.00
11413;BME280;5762;43.256;26.960;2023-04-29T06:24:18;99837.73;;;12.88;100.00
11413;BME280;5762;43.256;26.960;2023-04-29T06:26:47;99829.00;;;12.80;100.00
11413;BME280;5762;43.256;26.960;2023-04-29T06:29:16;99827.55;;;12.82;100.00
11413;BME280;5762;43.256;26.960;2023-04-29T06:31:45;99828.88;;;12.51;100.00
11413;BME280;5762;43.256;26.960;2023-04-29T06:34:14;99829.70;;;12.94;100.00
11413;BME280;5762;43.256;26.960;2023-04-29T06:36:43;99827.73;;;12.86;100.00
11413;BME280;5762;43.256;26.960;2023-04-29T06:39:12;99827.12;;;12.89;100.00
11413;BME280;5762;43.256;26.960;2023-04-29T06:41:41;99816.30;;;12.66;100.00
11413;BME280;5762;43.256;26.960;2023-04-29T06:44:09;99819.00;;;12.55;100.00
11413;BME280;5762;43.256;26.960;2023-04-29T06:46:38;99813.95;;;12.73;100.00
11413;BME280;5762;43.256;26.960;2023-04-29T06:49:07;99806.54;;;12.65;100.00
11413;BME280;5762;43.256;26.960;2023-04-29T06:51:36;99802.36;;;13.21;100.00
11413;BME280;5762;43.256;26.960;2023-04-29T06:54:04;99802.69;;;13.39;100.00
11413;BME280;5762;43.256;26.960;2023-04-29T06:56:32;99799.25;;;13.17;100.00
11413;BME280;5762;43.256;26.960;2023-04-29T06:59:01;99802.53;;;13.16;100.00
11413;BME280;5762;43.256;26.960;2023-04-29T07:01:30;99796.16;;;13.09;100.00
11413;BME280;5762;43.256;26.960;2023-04-29T07:04:02;99804.50;;;13.02;100.00
11413;BME280;5762;43.256;26.960;2023-04-29T07:06:32;99801.89;;;13.08;100.00
11413;BME280;5762;43.256;26.960;2023-04-29T07:09:00;99805.59;;;13.12;100.00
11413;BME280;5762;43.256;26.960;2023-04-29T07:11:29;99797.91;;;13.25;100.00
11413;BME280;5762;43.256;26.960;2023-04-29T07:13:58;99805.46;;;13.17;100.00
11413;BME280;5762;43.256;26.960;2023-04-29T07:16:27;99801.20;;;13.14;100.00
11413;BME280;5762;43.256;26.960;2023-04-29T07:18:56;99800.27;;;13.18;100.00
11413;BME280;5762;43.256;26.960;2023-04-29T07:21:24;99806.44;;;13.21;96.58
11413;BME280;5762;43.256;26.960;2023-04-29T07:23:52;99797.34;;;13.26;97.01
11413;BME280;5762;43.256;26.960;2023-04-29T07:26:21;99801.42;;;13.46;93.37
11413;BME280;5762;43.256;26.960;2023-04-29T07:28:50;99796.16;;;13.49;88.09
11413;BME280;5762;43.256;26.960;2023-04-29T07:31:19;99795.53;;;13.61;91.12
11413;BME280;5762;43.256;26.960;2023-04-29T07:33:48;99798.59;;;13.68;87.28
11413;BME280;5762;43.256;26.960;2023-04-29T07:36:16;99795.28;;;13.60;86.42
11413;BME280;5762;43.256;26.960;2023-04-29T07:38:45;99786.72;;;13.47;89.61
11413;BME280;5762;43.256;26.960;2023-04-29T07:41:13;99785.91;;;13.55;89.20
11413;BME280;5762;43.256;26.960;2023-04-29T07:43:43;99789.06;;;13.68;94.01
11413;BME280;5762;43.256;26.960;2023-04-29T07:46:11;99789.14;;;13.65;93.26
11413;BME280;5762;43.256;26.960;2023-04-29T07:48:41;99779.34;;;14.01;93.88
11413;BME280;5762;43.256;26.960;2023-04-29T07:51:13;99779.89;;;14.01;91.86
11413;BME280;5762;43.256;26.960;2023-04-29T07:53:41;99778.14;;;14.14;91.20
11413;BME280;5762;43.256;26.960;2023-04-29T07:56:10;99781.59;;;14.43;88.54
11413;BME280;5762;43.256;26.960;2023-04-29T07:58:39;99781.98;;;14.47;88.37
11413;BME280;5762;43.256;26.960;2023-04-29T08:01:08;99772.75;;;14.37;80.30
11413;BME280;5762;43.256;26.960;2023-04-29T08:03:37;99770.43;;;14.33;83.13
11413;BME280;5762;43.256;26.960;2023-04-29T08:06:05;99776.99;;;14.40;81.13
11413;BME280;5762;43.256;26.960;2023-04-29T08:08:34;99774.03;;;14.31;80.18
11413;BME280;5762;43.256;26.960;2023-04-29T08:11:03;99776.70;;;14.51;79.65
11413;BME280;5762;43.256;26.960;2023-04-29T08:13:32;99775.60;;;14.66;77.95
11413;BME280;5762;43.256;26.960;2023-04-29T08:16:01;99769.09;;;14.50;76.10
11413;BME280;5762;43.256;26.960;2023-04-29T08:18:30;99767.17;;;14.42;79.16
11413;BME280;5762;43.256;26.960;2023-04-29T08:20:59;99765.27;;;14.66;77.73
11413;BME280;5762;43.256;26.960;2023-04-29T08:23:28;99766.27;;;14.85;75.10
11413;BME280;5762;43.256;26.960;2023-04-29T08:25:57;99746.81;;;14.80;75.94
11413;BME280;5762;43.256;26.960;2023-04-29T08:28:26;99756.41;;;15.01;74.92
11413;BME280;5762;43.256;26.960;2023-04-29T08:30:54;99764.50;;;15.03;74.88
11413;BME280;5762;43.256;26.960;2023-04-29T08:33:23;99760.41;;;14.89;74.34
11413;BME280;5762;43.256;26.960;2023-04-29T08:35:58;99748.91;;;14.74;77.05
11413;BME280;5762;43.256;26.960;2023-04-29T08:38:28;99734.28;;;14.88;75.96
11413;BME280;5762;43.256;26.960;2023-04-29T08:40:57;99731.83;;;14.95;76.49
11413;BME280;5762;43.256;26.960;2023-04-29T08:43:26;99729.34;;;14.96;78.47
11413;BME280;5762;43.256;26.960;2023-04-29T08:45:56;99735.88;;;15.33;74.42
11413;BME280;5762;43.256;26.960;2023-04-29T08:48:25;99736.63;;;15.27;75.82
11413;BME280;5762;43.256;26.960;2023-04-29T08:50:55;99737.72;;;15.50;75.58
11413;BME280;5762;43.256;26.960;2023-04-29T08:53:24;99733.99;;;15.69;72.93
11413;BME280;5762;43.256;26.960;2023-04-29T08:55:55;99731.45;;;15.64;73.47
11413;BME280;5762;43.256;26.960;2023-04-29T08:58:25;99730.15;;;15.40;73.62
11413;BME280;5762;43.256;26.960;2023-04-29T09:00:54;99733.86;;;15.51;76.05
11413;BME280;5762;43.256;26.960;2023-04-29T09:03:25;99718.93;;;15.78;76.62
11413;BME280;5762;43.256;26.960;2023-04-29T09:05:53;99719.26;;;15.76;73.47
11413;BME280;5762;43.256;26.960;2023-04-29T09:08:22;99721.03;;;15.87;71.11
11413;BME280;5762;43.256;26.960;2023-04-29T09:10:51;99710.67;;;16.13;75.17
11413;BME280;5762;43.256;26.960;2023-04-29T09:13:23;99699.41;;;16.15;69.41
11413;BME280;5762;43.256;26.960;2023-04-29T09:15:52;99705.52;;;16.05;71.67
11413;BME280;5762;43.256;26.960;2023-04-29T09:20:53;99704.84;;;16.08;72.10
11413;BME280;5762;43.256;26.960;2023-04-29T09:23:22;99707.11;;;16.06;71.28
11413;BME280;5762;43.256;26.960;2023-04-29T09:25:55;99706.38;;;15.70;73.31
11413;BME280;5762;43.256;26.960;2023-04-29T09:28:24;99698.66;;;15.93;73.68
11413;BME280;5762;43.256;26.960;2023-04-29T09:30:53;99699.62;;;15.83;73.79
11413;BME280;5762;43.256;26.960;2023-04-29T09:33:22;99695.36;;;15.73;75.79
11413;BME280;5762;43.256;26.960;2023-04-29T09:35:50;99686.14;;;15.92;78.93
11413;BME280;5762;43.256;26.960;2023-04-29T09:38:19;99681.56;;;16.17;74.11
11413;BME280;5762;43.256;26.960;2023-04-29T09:40:48;99679.91;;;16.43;78.18
11413;BME280;5762;43.256;26.960;2023-04-29T09:43:17;99673.37;;;16.68;69.74
11413;BME280;5762;43.256;26.960;2023-04-29T09:45:46;99666.30;;;16.61;71.01
11413;BME280;5762;43.256;26.960;2023-04-29T09:48:16;99664.73;;;16.91;67.79
11413;BME280;5762;43.256;26.960;2023-04-29T09:50:44;99664.83;;;17.00;68.01
11413;BME280;5762;43.256;26.960;2023-04-29T09:53:26;99659.50;;;16.98;69.04
11413;BME280;5762;43.256;26.960;2023-04-29T09:58:26;99646.41;;;16.97;64.20
11413;BME280;5762;43.256;26.960;2023-04-29T10:00:57;99648.20;;;16.69;68.58
11413;BME280;5762;43.256;26.960;2023-04-29T10:03:26;99644.91;;;16.82;70.51
11413;BME280;5762;43.256;26.960;2023-04-29T10:05:55;99649.93;;;16.92;65.02
11413;BME280;5762;43.256;26.960;2023-04-29T10:08:25;99650.84;;;16.90;64.12
11413;BME280;5762;43.256;26.960;2023-04-29T10:11:03;99646.62;;;16.92;64.31
11413;BME280;5762;43.256;26.960;2023-04-29T10:13:24;99654.71;;;16.89;63.07
11413;BME280;5762;43.256;26.960;2023-04-29T10:18:44;99639.09;;;16.71;63.33
11413;BME280;5762;43.256;26.960;2023-04-29T10:21:11;99643.66;;;16.73;64.72
11413;BME280;5762;43.256;26.960;2023-04-29T10:23:40;99645.27;;;16.92;63.07
11413;BME280;5762;43.256;26.960;2023-04-29T10:26:11;99638.51;;;17.08;64.42
11413;BME280;5762;43.256;26.960;2023-04-29T10:28:40;99633.75;;;16.93;61.89
11413;BME280;5762;43.256;26.960;2023-04-29T10:31:10;99637.84;;;16.74;61.12
11413;BME280;5762;43.256;26.960;2023-04-29T10:33:39;99625.03;;;16.36;64.96
11413;BME280;5762;43.256;26.960;2023-04-29T10:36:09;99622.56;;;17.04;63.77
11413;BME280;5762;43.256;26.960;2023-04-29T10:38:39;99623.06;;;17.34;62.83
11413;BME280;5762;43.256;26.960;2023-04-29T10:41:09;99631.31;;;17.22;61.52
11413;BME280;5762;43.256;26.960;2023-04-29T10:48:48;99622.43;;;18.46;56.20
11413;BME280;5762;43.256;26.960;2023-04-29T10:54:08;99605.73;;;17.76;58.44
11413;BME280;5762;43.256;26.960;2023-04-29T10:56:39;99614.69;;;17.89;57.48
11413;BME280;5762;43.256;26.960;2023-04-29T10:59:08;99622.18;;;17.98;56.88
11413;BME280;5762;43.256;26.960;2023-04-29T11:04:11;99618.34;;;18.08;54.97
11413;BME280;5762;43.256;26.960;2023-04-29T11:06:41;99614.34;;;18.75;52.96
11413;BME280;5762;43.256;26.960;2023-04-29T11:09:14;99616.06;;;18.64;52.69
11413;BME280;5762;43.256;26.960;2023-04-29T11:11:47;99616.20;;;18.55;55.37
11413;BME280;5762;43.256;26.960;2023-04-29T11:14:20;99605.54;;;18.66;53.84
11413;BME280;5762;43.256;26.960;2023-04-29T11:16:50;99609.88;;;18.45;47.33
11413;BME280;5762;43.256;26.960;2023-04-29T11:19:17;99595.88;;;18.03;52.21
11413;BME280;5762;43.256;26.960;2023-04-29T11:21:46;99601.55;;;18.10;54.98
11413;BME280;5762;43.256;26.960;2023-04-29T11:24:15;99603.23;;;17.71;53.50
11413;BME280;5762;43.256;26.960;2023-04-29T11:26:43;99597.12;;;18.27;56.06
11413;BME280;5762;43.256;26.960;2023-04-29T11:29:12;99605.51;;;18.50;50.43
11413;BME280;5762;43.256;26.960;2023-04-29T11:31:40;99594.09;;;18.80;50.35
11413;BME280;5762;43.256;26.960;2023-04-29T11:34:09;99588.39;;;18.79;46.74
11413;BME280;5762;43.256;26.960;2023-04-29T11:36:38;99596.87;;;18.89;46.95
11413;BME280;5762;43.256;26.960;2023-04-29T11:39:07;99595.30;;;18.57;49.04
11413;BME280;5762;43.256;26.960;2023-04-29T11:41:36;99588.00;;;18.39;50.23
11413;BME280;5762;43.256;26.960;2023-04-29T11:44:05;99590.70;;;19.02;49.64
11413;BME280;5762;43.256;26.960;2023-04-29T11:46:35;99589.82;;;18.98;50.50
11413;BME280;5762;43.256;26.960;2023-04-29T11:49:03;99592.58;;;19.17;48.84
11413;BME280;5762;43.256;26.960;2023-04-29T11:51:32;99583.57;;;19.26;49.64
11413;BME280;5762;43.256;26.960;2023-04-29T11:54:01;99581.94;;;18.39;49.83
11413;BME280;5762;43.256;26.960;2023-04-29T11:56:30;99575.71;;;18.49;51.46
11413;BME280;5762;43.256;26.960;2023-04-29T11:58:59;99569.02;;;18.62;50.86
11413;BME280;5762;43.256;26.960;2023-04-29T12:01:28;99560.73;;;18.52;50.92
11413;BME280;5762;43.256;26.960;2023-04-29T12:03:57;99557.20;;;18.04;53.95
11413;BME280;5762;43.256;26.960;2023-04-29T12:06:27;99555.92;;;18.71;52.08
11413;BME280;5762;43.256;26.960;2023-04-29T12:08:59;99555.16;;;18.90;47.47
11413;BME280;5762;43.256;26.960;2023-04-29T12:11:28;99557.30;;;18.71;46.22
11413;BME280;5762;43.256;26.960;2023-04-29T12:13:57;99559.31;;;18.58;46.26
11413;BME280;5762;43.256;26.960;2023-04-29T12:16:26;99554.25;;;19.21;43.86
11413;BME280;5762;43.256;26.960;2023-04-29T12:18:56;99549.94;;;19.39;43.82
11413;BME280;5762;43.256;26.960;2023-04-29T12:21:25;99541.50;;;19.90;44.95
11413;BME280;5762;43.256;26.960;2023-04-29T12:24:01;99541.86;;;20.11;44.80
11413;BME280;5762;43.256;26.960;2023-04-29T12:26:29;99549.72;;;19.67;46.20
11413;BME280;5762;43.256;26.960;2023-04-29T12:28:58;99545.66;;;19.22;47.64
11413;BME280;5762;43.256;26.960;2023-04-29T12:31:33;99550.13;;;19.01;45.40
11413;BME280;5762;43.256;26.960;2023-04-29T12:34:02;99532.67;;;18.65;47.33
11413;BME280;5762;43.256;26.960;2023-04-29T12:36:31;99526.66;;;19.14;47.80
11413;BME280;5762;43.256;26.960;2023-04-29T12:39:00;99536.34;;;19.17;48.21
11413;BME280;5762;43.256;26.960;2023-04-29T12:41:35;99535.74;;;18.89;47.36
11413;BME280;5762;43.256;26.960;2023-04-29T12:44:04;99535.41;;;19.29;48.16
11413;BME280;5762;43.256;26.960;2023-04-29T12:46:34;99534.19;;;19.65;47.29
11413;BME280;5762;43.256;26.960;2023-04-29T12:49:03;99524.58;;;19.26;47.76
11413;BME280;5762;43.256;26.960;2023-04-29T12:51:32;99515.75;;;19.07;49.51
11413;BME280;5762;43.256;26.960;2023-04-29T12:54:02;99517.92;;;19.08;49.83
11413;BME280;5762;43.256;26.960;2023-04-29T12:56:31;99508.17;;;19.11;48.76
11413;BME280;5762;43.256;26.960;2023-04-29T12:59:09;99507.07;;;18.67;48.94
11413;BME280;5762;43.256;26.960;2023-04-29T13:01:38;99502.11;;;19.11;48.78
11413;BME280;5762;43.256;26.960;2023-04-29T13:04:06;99500.58;;;19.42;47.64
11413;BME280;5762;43.256;26.960;2023-04-29T13:06:36;99493.44;;;18.80;49.30
11413;BME280;5762;43.256;26.960;2023-04-29T13:09:07;99494.05;;;18.99;50.35
11413;BME280;5762;43.256;26.960;2023-04-29T13:11:37;99486.38;;;19.27;50.39
11413;BME280;5762;43.256;26.960;2023-04-29T13:14:06;99496.91;;;19.54;47.93
11413;BME280;5762;43.256;26.960;2023-04-29T13:16:35;99491.69;;;19.91;46.90
11413;BME280;5762;43.256;26.960;2023-04-29T13:19:04;99490.85;;;20.36;46.81
11413;BME280;5762;43.256;26.960;2023-04-29T13:21:33;99487.14;;;20.25;45.74
11413;BME280;5762;43.256;26.960;2023-04-29T13:24:02;99485.42;;;20.53;44.37
11413;BME280;5762;43.256;26.960;2023-04-29T13:26:31;99484.78;;;20.77;43.58
11413;BME280;5762;43.256;26.960;2023-04-29T13:28:59;99486.06;;;19.84;46.06
11413;BME280;5762;43.256;26.960;2023-04-29T13:31:29;99485.54;;;19.75;46.64
11413;BME280;5762;43.256;26.960;2023-04-29T13:33:58;99475.61;;;20.03;46.69
11413;BME280;5762;43.256;26.960;2023-04-29T13:36:27;99472.70;;;19.83;45.74